createdAt,value
2018-04-25T00:00:28.532Z,11.97
2018-04-25T00:02:57.006Z,11.43
2018-04-25T00:05:26.025Z,10.40
2018-04-25T00:07:53.742Z,11.00
2018-04-25T00:10:21.401Z,11.27
2018-04-25T00:12:49.899Z,10.60
2018-04-25T00:15:18.357Z,10.73
2018-04-25T00:17:46.037Z,9.13
2018-04-25T00:20:14.575Z,9.63
2018-04-25T00:22:42.241Z,9.43
2018-04-25T00:25:09.927Z,9.73
2018-04-25T00:27:37.604Z,10.23
2018-04-25T00:30:06.091Z,11.73
2018-04-25T00:32:34.520Z,11.83
2018-04-25T00:35:02.196Z,10.10
2018-04-25T00:37:29.883Z,8.20
2018-04-25T00:39:57.557Z,11.87
2018-04-25T00:42:26.019Z,11.53
2018-04-25T00:44:53.707Z,11.73
2018-04-25T00:47:21.395Z,12.07
2018-04-25T00:49:49.078Z,11.93
2018-04-25T00:52:16.776Z,10.70
2018-04-25T00:54:45.235Z,10.30
2018-04-25T00:57:12.928Z,12.03
2018-04-25T00:59:41.364Z,9.73
2018-04-25T01:02:09.047Z,11.47
2018-04-25T01:04:36.752Z,10.00
2018-04-25T01:07:04.427Z,10.80
2018-04-25T01:09:32.075Z,10.77
2018-04-25T01:11:59.790Z,11.00
2018-04-25T01:14:27.472Z,11.80
2018-04-25T01:16:55.936Z,11.90
2018-04-25T01:19:23.612Z,12.37
2018-04-25T01:21:51.315Z,12.67
2018-04-25T01:24:19.015Z,12.67
2018-04-25T01:26:51.489Z,12.17
2018-04-25T01:29:22.762Z,10.93
2018-04-25T01:31:53.023Z,11.37
2018-04-25T01:34:26.351Z,11.03
2018-04-25T01:37:03.635Z,12.23
2018-04-25T01:39:37.928Z,12.13
2018-04-25T01:42:28.361Z,12.13
2018-04-25T01:44:59.441Z,12.40
2018-04-25T01:47:31.788Z,10.60
2018-04-25T01:53:09.555Z,12.20
2018-04-25T01:55:49.064Z,11.60
2018-04-25T01:58:29.364Z,12.77
2018-04-25T02:01:09.027Z,11.03
2018-04-25T02:03:48.703Z,11.27
2018-04-25T02:06:17.138Z,12.50
2018-04-25T02:08:44.804Z,13.67
2018-04-25T02:11:12.503Z,11.67
2018-04-25T02:13:40.927Z,13.70
2018-04-25T02:16:08.624Z,11.93
2018-04-25T02:18:36.299Z,11.67
2018-04-25T02:21:04.765Z,12.87
2018-04-25T02:23:32.451Z,13.83
2018-04-25T02:26:00.904Z,12.33
2018-04-25T02:28:28.596Z,13.83
2018-04-25T02:30:57.016Z,12.60
2018-04-25T02:33:24.735Z,13.50
2018-04-25T02:35:53.156Z,13.90
2018-04-25T02:38:20.824Z,14.30
2018-04-25T02:40:48.528Z,14.77
2018-04-25T02:43:16.954Z,13.00
2018-04-25T02:45:44.664Z,13.00
2018-04-25T02:48:12.332Z,14.37
2018-04-25T02:50:40.880Z,14.23
2018-04-25T02:53:08.535Z,13.27
2018-04-25T02:55:36.227Z,14.20
2018-04-25T02:58:03.972Z,13.60
2018-04-25T03:00:31.667Z,12.17
2018-04-25T03:03:00.104Z,13.70
2018-04-25T03:05:27.787Z,13.40
2018-04-25T03:07:55.454Z,13.43
2018-04-25T03:10:23.163Z,14.03
2018-04-25T03:12:50.835Z,15.33
2018-04-25T03:15:18.508Z,12.70
2018-04-25T03:17:46.206Z,13.43
2018-04-25T03:20:13.879Z,13.30
2018-04-25T03:22:42.343Z,13.87
2018-04-25T03:25:10.003Z,13.80
2018-04-25T03:27:37.694Z,12.10
2018-04-25T03:30:06.115Z,12.87
2018-04-25T03:32:33.824Z,13.40
2018-04-25T03:35:01.497Z,12.57
2018-04-25T03:37:29.915Z,13.53
2018-04-25T03:39:57.601Z,13.17
2018-04-25T03:42:25.286Z,12.93
2018-04-25T03:44:52.971Z,13.33
2018-04-25T03:47:21.402Z,12.73
2018-04-25T03:49:49.100Z,13.70
2018-04-25T03:52:17.524Z,14.20
2018-04-25T03:54:45.211Z,12.30
2018-04-25T03:57:13.643Z,13.43
2018-04-25T03:59:41.349Z,13.80
2018-04-25T04:02:09.026Z,13.37
2018-04-25T04:04:36.745Z,11.87
2018-04-25T04:07:04.406Z,12.37
2018-04-25T04:09:32.099Z,13.00
2018-04-25T04:11:59.755Z,12.37
2018-04-25T04:14:27.467Z,13.20
2018-04-25T04:16:55.919Z,14.03
2018-04-25T04:19:23.609Z,14.30
2018-04-25T04:21:52.069Z,12.00
2018-04-25T04:24:19.783Z,13.10
2018-04-25T04:26:47.443Z,13.60
2018-04-25T04:29:15.103Z,12.53
2018-04-25T04:31:42.796Z,13.83
2018-04-25T04:34:10.456Z,14.13
2018-04-25T04:36:38.153Z,12.60
2018-04-25T04:39:06.585Z,14.00
2018-04-25T04:41:34.267Z,13.03
2018-04-25T04:44:01.923Z,13.50
2018-04-25T04:46:29.621Z,12.83
2018-04-25T04:48:58.052Z,13.23
2018-04-25T04:51:25.751Z,12.90
2018-04-25T04:53:53.421Z,12.77
2018-04-25T04:56:21.892Z,13.17
2018-04-25T04:58:49.557Z,11.90
2018-04-25T05:01:17.987Z,13.13
2018-04-25T05:03:45.687Z,13.23
2018-04-25T05:06:13.352Z,12.17
2018-04-25T05:08:41.066Z,11.37
2018-04-25T05:11:08.752Z,11.97
2018-04-25T05:13:37.222Z,13.07
2018-04-25T05:16:04.889Z,11.40
2018-04-25T05:18:32.590Z,11.60
2018-04-25T05:21:01.054Z,11.07
2018-04-25T05:23:28.724Z,12.77
2018-04-25T05:25:56.410Z,11.30
2018-04-25T05:28:24.834Z,12.33
2018-04-25T05:30:52.530Z,11.13
2018-04-25T05:33:20.233Z,12.13
2018-04-25T05:35:47.908Z,11.27
2018-04-25T05:38:15.599Z,12.07
2018-04-25T05:40:43.321Z,11.40
2018-04-25T05:43:12.452Z,10.67
2018-04-25T05:45:42.017Z,11.33
2018-04-25T05:48:09.809Z,10.97
2018-04-25T05:50:37.551Z,10.27
2018-04-25T05:53:05.248Z,10.77
2018-04-25T05:55:32.909Z,10.43
2018-04-25T05:58:00.695Z,9.80
2018-04-25T06:00:28.305Z,9.00
2018-04-25T06:02:55.968Z,9.57
2018-04-25T06:05:23.659Z,9.03
2018-04-25T06:07:51.325Z,9.10
2018-04-25T06:10:19.018Z,8.73
2018-04-25T06:12:47.527Z,8.07
2018-04-25T06:15:15.217Z,9.27
2018-04-25T06:17:46.318Z,8.27
2018-04-25T06:20:14.173Z,7.30
2018-04-25T06:22:41.895Z,7.80
2018-04-25T06:25:09.661Z,7.23
2018-04-25T06:27:37.352Z,7.23
2018-04-25T06:30:05.047Z,7.23
2018-04-25T06:32:32.723Z,6.37
2018-04-25T06:35:00.404Z,6.47
2018-04-25T06:37:28.063Z,6.13
2018-04-25T06:39:55.763Z,7.50
2018-04-25T06:42:23.443Z,7.13
2018-04-25T06:44:51.993Z,7.00
2018-04-25T06:47:20.379Z,6.00
2018-04-25T06:49:48.060Z,6.10
2018-04-25T06:52:15.787Z,6.20
2018-04-25T06:54:43.453Z,6.23
2018-04-25T06:57:11.116Z,5.87
2018-04-25T06:59:39.575Z,5.67
2018-04-25T07:02:07.237Z,6.27
2018-04-25T07:04:34.933Z,5.60
2018-04-25T07:07:02.623Z,5.80
2018-04-25T07:09:31.057Z,4.70
2018-04-25T07:11:58.748Z,5.03
2018-04-25T07:14:27.223Z,6.50
2018-04-25T07:16:54.938Z,5.67
2018-04-25T07:19:27.507Z,4.93
2018-04-25T07:22:01.595Z,6.23
2018-04-25T07:24:29.516Z,4.80
2018-04-25T07:27:01.600Z,5.33
2018-04-25T07:29:30.850Z,5.07
2018-04-25T07:32:02.234Z,5.53
2018-04-25T07:34:29.919Z,4.67
2018-04-25T07:36:57.633Z,5.57
2018-04-25T07:39:26.336Z,4.57
2018-04-25T07:41:54.083Z,5.03
2018-04-25T07:44:22.714Z,4.87
2018-04-25T07:46:50.383Z,4.90
2018-04-25T07:49:18.860Z,5.10
2018-04-25T07:51:47.381Z,5.37
2018-04-25T07:54:15.059Z,4.93
2018-04-25T07:56:43.517Z,5.03
2018-04-25T07:59:11.260Z,6.17
2018-04-25T08:01:38.937Z,5.40
2018-04-25T08:04:06.786Z,5.40
2018-04-25T08:06:34.521Z,5.30
2018-04-25T08:09:02.305Z,4.93
2018-04-25T08:11:31.038Z,5.57
2018-04-25T08:14:10.761Z,5.30
2018-04-25T08:16:50.308Z,4.83
2018-04-25T08:19:29.793Z,4.40
2018-04-25T08:21:57.496Z,5.50
2018-04-25T08:24:25.246Z,5.43
2018-04-25T08:26:53.751Z,5.33
2018-04-25T08:29:21.513Z,4.67
2018-04-25T08:31:49.263Z,5.40
2018-04-25T08:34:16.988Z,5.60
2018-04-25T08:36:44.877Z,4.93
2018-04-25T08:39:12.668Z,5.47
2018-04-25T08:41:40.353Z,5.00
2018-04-25T08:44:08.141Z,5.00
2018-04-25T08:46:35.845Z,5.30
2018-04-25T08:49:04.341Z,5.47
2018-04-25T08:51:32.059Z,5.47
2018-04-25T08:53:59.806Z,4.90
2018-04-25T08:56:27.590Z,4.63
2018-04-25T08:58:56.095Z,5.87
2018-04-25T09:01:23.824Z,6.27
2018-04-25T09:03:51.572Z,6.67
2018-04-25T09:06:19.303Z,5.73
2018-04-25T09:08:47.019Z,7.43
2018-04-25T09:11:14.797Z,5.17
2018-04-25T09:13:42.487Z,5.40
2018-04-25T09:16:10.194Z,5.33
2018-04-25T09:18:37.876Z,5.77
2018-04-25T09:21:05.675Z,5.70
2018-04-25T09:23:33.369Z,5.10
2018-04-25T09:26:01.074Z,4.93
2018-04-25T09:28:28.889Z,4.83
2018-04-25T09:30:56.620Z,5.03
2018-04-25T09:33:24.339Z,5.70
2018-04-25T09:35:52.111Z,4.70
2018-04-25T09:38:21.020Z,5.03
2018-04-25T09:40:49.612Z,5.57
2018-04-25T09:43:17.493Z,6.33
2018-04-25T09:45:45.388Z,5.20
2018-04-25T09:48:13.154Z,5.20
2018-04-25T09:50:40.846Z,5.53
2018-04-25T09:53:08.568Z,4.90
2018-04-25T09:55:54.292Z,4.73
2018-04-25T09:58:30.927Z,5.43
2018-04-25T10:00:59.161Z,5.90
2018-04-25T10:03:26.887Z,5.77
2018-04-25T10:05:55.502Z,5.73
2018-04-25T10:08:25.620Z,6.67
2018-04-25T10:10:55.287Z,6.43
2018-04-25T10:13:24.774Z,5.00
2018-04-25T10:15:52.480Z,6.10
2018-04-25T10:18:20.185Z,5.93
2018-04-25T10:20:47.867Z,5.73
2018-04-25T10:23:15.668Z,5.50
2018-04-25T10:25:43.815Z,5.63
2018-04-25T10:28:11.545Z,5.37
2018-04-25T10:30:40.963Z,4.97
2018-04-25T10:33:08.866Z,4.50
2018-04-25T10:35:36.683Z,4.73
2018-04-25T10:38:05.142Z,4.07
2018-04-25T10:40:33.813Z,3.63
2018-04-25T10:43:06.038Z,3.90
2018-04-25T10:45:35.787Z,3.13
2018-04-25T10:48:03.801Z,3.73
2018-04-25T10:50:32.977Z,4.07
2018-04-25T10:53:01.303Z,3.80
2018-04-25T10:55:33.580Z,4.77
2018-04-25T10:58:02.856Z,3.70
2018-04-25T11:00:31.376Z,3.97
2018-04-25T11:02:59.305Z,3.93
2018-04-25T11:05:28.301Z,4.80
2018-04-25T11:07:56.018Z,5.03
2018-04-25T11:10:24.596Z,5.20
2018-04-25T11:12:52.299Z,5.53
2018-04-25T11:15:20.024Z,4.83
2018-04-25T11:17:47.779Z,5.00
2018-04-25T11:20:15.761Z,4.37
2018-04-25T11:22:44.103Z,4.40
2018-04-25T11:25:11.887Z,4.33
2018-04-25T11:27:41.611Z,3.73
2018-04-25T11:30:09.309Z,3.63
2018-04-25T11:32:37.023Z,4.13
2018-04-25T11:35:04.740Z,3.10
2018-04-25T11:37:33.220Z,2.90
2018-04-25T11:40:01.485Z,2.43
2018-04-25T11:42:29.214Z,2.10
2018-04-25T11:44:56.969Z,1.93
2018-04-25T11:47:24.687Z,2.07
2018-04-25T11:49:52.401Z,1.73
2018-04-25T11:52:20.165Z,1.40
2018-04-25T11:54:47.975Z,1.50
2018-04-25T11:57:15.688Z,1.67
2018-04-25T11:59:43.416Z,1.30
2018-04-25T12:02:11.168Z,1.30
2018-04-25T12:04:38.945Z,1.70
2018-04-25T12:07:06.926Z,1.30
2018-04-25T12:09:34.676Z,2.20
2018-04-25T12:12:02.958Z,1.73
2018-04-25T12:14:33.926Z,1.70
2018-04-25T12:17:03.327Z,1.70
2018-04-25T12:19:39.452Z,1.43
2018-04-25T12:22:07.904Z,1.50
2018-04-25T12:24:36.400Z,1.50
2018-04-25T12:27:08.934Z,1.50
2018-04-25T12:29:37.053Z,1.47
2018-04-25T12:32:04.777Z,1.73
2018-04-25T12:34:37.238Z,1.70
2018-04-25T12:37:07.855Z,1.50
2018-04-25T12:39:44.470Z,2.07
2018-04-25T12:42:22.934Z,2.67
2018-04-25T12:44:55.685Z,2.70
2018-04-25T12:47:28.801Z,2.77
2018-04-25T12:49:56.532Z,3.37
2018-04-25T12:52:24.222Z,3.13
2018-04-25T12:54:57.484Z,3.77
2018-04-25T12:58:07.664Z,3.60
2018-04-25T13:00:44.616Z,3.50
2018-04-25T13:03:14.896Z,3.87
2018-04-25T13:05:43.418Z,3.70
2018-04-25T13:08:11.951Z,4.37
2018-04-25T13:10:39.675Z,3.73
2018-04-25T13:13:07.387Z,3.90
2018-04-25T13:15:35.043Z,3.30
2018-04-25T13:18:03.338Z,3.63
2018-04-25T13:20:31.084Z,3.10
2018-04-25T13:22:58.760Z,3.93
2018-04-25T13:25:27.212Z,1.97
2018-04-25T13:27:54.952Z,1.90
2018-04-25T13:30:22.665Z,1.60
2018-04-25T13:32:50.383Z,1.53
2018-04-25T13:35:18.421Z,1.20
2018-04-25T13:37:46.617Z,1.33
2018-04-25T13:40:15.053Z,1.17
2018-04-25T13:42:42.768Z,1.10
2018-04-25T13:45:10.517Z,0.97
2018-04-25T13:47:42.435Z,1.00
2018-04-25T13:50:11.128Z,1.40
2018-04-25T13:52:38.927Z,1.17
2018-04-25T13:55:07.159Z,0.63
2018-04-25T13:57:34.976Z,1.20
2018-04-25T14:00:04.391Z,1.10
2018-04-25T14:02:33.298Z,1.03
2018-04-25T14:05:01.032Z,0.97
2018-04-25T14:07:29.153Z,0.90
2018-04-25T14:09:56.874Z,1.17
2018-04-25T14:12:24.630Z,1.17
2018-04-25T14:14:53.075Z,1.30
2018-04-25T14:17:20.772Z,1.10
2018-04-25T14:19:48.468Z,0.83
2018-04-25T14:22:16.196Z,0.90
2018-04-25T14:24:43.979Z,1.30
2018-04-25T14:27:12.643Z,1.43
2018-04-25T14:29:41.133Z,1.23
2018-04-25T14:32:08.887Z,0.90
2018-04-25T14:34:37.349Z,0.87
2018-04-25T14:37:05.907Z,1.33
2018-04-25T14:39:34.202Z,1.13
2018-04-25T14:42:01.886Z,1.17
2018-04-25T14:44:30.374Z,0.97
2018-04-25T14:46:58.145Z,0.80
2018-04-25T14:49:25.942Z,1.13
2018-04-25T14:51:53.628Z,0.70
2018-04-25T14:54:21.408Z,0.83
2018-04-25T14:56:50.132Z,0.93
2018-04-25T14:59:17.941Z,1.00
2018-04-25T15:01:45.703Z,1.10
2018-04-25T15:04:14.298Z,0.90
2018-04-25T15:06:42.194Z,1.10
2018-04-25T15:09:10.756Z,1.20
2018-04-25T15:11:38.448Z,0.90
2018-04-25T15:14:06.168Z,0.80
2018-04-25T15:16:34.085Z,0.67
2018-04-25T15:19:01.794Z,1.20
2018-04-25T15:21:30.519Z,0.97
2018-04-25T15:23:58.197Z,0.93
2018-04-25T15:26:26.098Z,0.97
2018-04-25T15:28:53.970Z,0.93
2018-04-25T15:31:21.673Z,1.00
2018-04-25T15:33:49.390Z,1.07
2018-04-25T15:36:17.111Z,0.60
2018-04-25T15:38:44.818Z,0.77
2018-04-25T15:41:12.518Z,0.80
2018-04-25T15:43:41.101Z,0.60
2018-04-25T15:46:09.632Z,1.10
2018-04-25T15:48:38.313Z,0.77
2018-04-25T15:51:06.287Z,2.63
2018-04-25T15:53:34.201Z,1.87
2018-04-25T15:56:03.067Z,1.30
2018-04-25T15:58:30.816Z,1.27
2018-04-25T16:00:58.528Z,1.20
2018-04-25T16:03:26.254Z,1.10
2018-04-25T16:05:53.934Z,1.27
2018-04-25T16:08:21.653Z,1.03
2018-04-25T16:10:49.398Z,0.80
2018-04-25T16:13:17.219Z,1.20
2018-04-25T16:15:44.968Z,1.03
2018-04-25T16:18:12.675Z,1.20
2018-04-25T16:20:40.562Z,1.20
2018-04-25T16:23:08.233Z,0.97
2018-04-25T16:25:35.964Z,1.40
2018-04-25T16:28:05.507Z,1.10
2018-04-25T16:30:34.148Z,0.87
2018-04-25T16:33:03.351Z,0.93
2018-04-25T16:35:34.272Z,1.10
2018-04-25T16:38:03.131Z,1.00
2018-04-25T16:40:30.848Z,0.63
2018-04-25T16:43:00.347Z,0.80
2018-04-25T16:45:28.877Z,0.70
2018-04-25T16:47:56.657Z,0.93
2018-04-25T16:50:31.661Z,0.93
2018-04-25T16:53:05.431Z,0.97
2018-04-25T16:55:34.220Z,0.93
2018-04-25T16:58:04.918Z,1.07
2018-04-25T17:00:33.426Z,0.90
2018-04-25T17:03:01.202Z,0.90
2018-04-25T17:05:30.360Z,0.80
2018-04-25T17:07:58.064Z,0.90
2018-04-25T17:10:25.976Z,1.07
2018-04-25T17:12:54.931Z,0.80
2018-04-25T17:15:22.886Z,1.53
2018-04-25T17:17:50.701Z,1.47
2018-04-25T17:20:18.406Z,1.23
2018-04-25T17:22:46.765Z,1.37
2018-04-25T17:25:14.452Z,1.53
2018-04-25T17:27:42.945Z,1.00
2018-04-25T17:30:10.654Z,1.00
2018-04-25T17:32:38.504Z,1.07
2018-04-25T17:35:07.772Z,0.80
2018-04-25T17:37:36.782Z,0.90
2018-04-25T17:40:04.781Z,0.90
2018-04-25T17:42:32.540Z,1.00
2018-04-25T17:45:00.488Z,1.03
2018-04-25T17:47:28.593Z,1.20
2018-04-25T17:49:56.457Z,1.57
2018-04-25T17:52:24.263Z,0.87
2018-04-25T17:54:52.177Z,1.23
2018-04-25T17:57:21.513Z,0.90
2018-04-25T17:59:50.388Z,0.90
2018-04-25T18:02:19.307Z,1.13
2018-04-25T18:04:47.980Z,1.27
2018-04-25T18:07:17.191Z,1.10
2018-04-25T18:09:45.674Z,1.10
2018-04-25T18:12:14.054Z,1.00
2018-04-25T18:14:41.820Z,0.90
2018-04-25T18:17:10.688Z,0.77
2018-04-25T18:19:38.368Z,0.70
2018-04-25T18:22:07.574Z,0.73
2018-04-25T18:24:35.942Z,0.80
2018-04-25T18:27:04.030Z,0.90
2018-04-25T18:29:32.990Z,1.50
2018-04-25T18:32:01.609Z,1.00
2018-04-25T18:34:29.746Z,0.87
2018-04-25T18:36:58.668Z,1.07
2018-04-25T18:39:27.746Z,0.70
2018-04-25T18:41:55.920Z,0.90
2018-04-25T18:44:24.146Z,0.50
2018-04-25T18:46:52.335Z,0.80
2018-04-25T18:49:21.407Z,1.13
2018-04-25T18:51:49.338Z,0.80
2018-04-25T18:54:17.300Z,0.80
2018-04-25T18:56:49.025Z,0.70
2018-04-25T18:59:16.999Z,1.20
2018-04-25T19:01:47.404Z,1.10
2018-04-25T19:04:15.200Z,1.00
2018-04-25T19:06:43.148Z,0.90
2018-04-25T19:09:11.494Z,1.30
2018-04-25T19:11:39.250Z,0.80
2018-04-25T19:14:06.991Z,0.87
2018-04-25T19:16:35.372Z,1.00
2018-04-25T19:19:05.083Z,1.10
2018-04-25T19:21:33.053Z,1.10
2018-04-25T19:24:06.560Z,1.10
2018-04-25T19:26:34.730Z,1.20
2018-04-25T19:29:05.534Z,0.80
2018-04-25T19:31:33.330Z,0.83
2018-04-25T19:34:01.185Z,1.07
2018-04-25T19:36:29.825Z,1.20
2018-04-25T19:38:59.251Z,1.03
2018-04-25T19:41:27.329Z,1.07
2018-04-25T19:43:55.384Z,1.07
2018-04-25T19:46:26.553Z,1.03
2018-04-25T19:48:54.615Z,0.83
2018-04-25T19:51:22.557Z,1.00
2018-04-25T19:53:51.181Z,1.07
2018-04-25T19:56:19.647Z,1.27
2018-04-25T19:58:48.917Z,1.10
2018-04-25T20:01:17.823Z,1.00
2018-04-25T20:03:45.735Z,1.30
2018-04-25T20:06:13.794Z,1.20
2018-04-25T20:08:43.460Z,1.33
2018-04-25T20:11:12.145Z,1.53
2018-04-25T20:13:40.778Z,1.20
2018-04-25T20:16:08.723Z,1.00
2018-04-25T20:18:39.856Z,1.33
2018-04-25T20:21:08.651Z,1.30
2018-04-25T20:23:36.650Z,1.10
2018-04-25T20:26:05.067Z,1.57
2018-04-25T20:28:33.080Z,1.13
2018-04-25T20:31:01.097Z,1.07
2018-04-25T20:33:29.209Z,1.73
2018-04-25T20:36:04.858Z,1.10
2018-04-25T20:38:34.064Z,1.30
2018-04-25T20:41:03.622Z,1.43
2018-04-25T20:43:31.657Z,1.30
2018-04-25T20:46:01.731Z,1.30
2018-04-25T20:48:30.090Z,1.37
2018-04-25T20:50:58.033Z,1.93
2018-04-25T20:53:26.025Z,1.33
2018-04-25T20:55:53.913Z,1.20
2018-04-25T20:58:22.420Z,1.20
2018-04-25T21:00:50.861Z,1.43
2018-04-25T21:03:18.751Z,1.50
2018-04-25T21:05:46.824Z,1.17
2018-04-25T21:08:14.602Z,1.53
2018-04-25T21:10:42.489Z,1.60
2018-04-25T21:13:10.401Z,1.83
2018-04-25T21:15:38.188Z,1.60
2018-04-25T21:18:07.241Z,1.27
2018-04-25T21:20:35.869Z,1.70
2018-04-25T21:23:03.626Z,1.60
2018-04-25T21:25:31.343Z,1.77
2018-04-25T21:27:59.090Z,1.40
2018-04-25T21:30:26.785Z,1.37
2018-04-25T21:32:54.734Z,1.40
2018-04-25T21:35:22.542Z,1.47
2018-04-25T21:37:52.425Z,1.57
2018-04-25T21:40:38.850Z,1.70
2018-04-25T21:43:07.283Z,2.40
2018-04-25T21:45:37.418Z,1.53
2018-04-25T21:48:05.805Z,1.60
2018-04-25T21:50:36.504Z,1.77
2018-04-25T21:53:05.803Z,1.43
2018-04-25T21:55:33.869Z,1.77
2018-04-25T21:58:01.789Z,1.87
2018-04-25T22:00:29.546Z,1.57
2018-04-25T22:03:00.354Z,1.80
2018-04-25T22:05:28.460Z,1.70
2018-04-25T22:07:56.337Z,1.93
2018-04-25T22:10:24.242Z,2.00
2018-04-25T22:12:52.041Z,2.07
2018-04-25T22:15:20.783Z,1.70
2018-04-25T22:17:49.904Z,1.70
2018-04-25T22:20:17.885Z,1.90
2018-04-25T22:22:45.732Z,1.90
2018-04-25T22:25:13.618Z,1.97
2018-04-25T22:27:42.384Z,1.80
2018-04-25T22:30:10.403Z,1.73
2018-04-25T22:32:38.222Z,1.97
2018-04-25T22:35:06.970Z,2.27
2018-04-25T22:37:35.493Z,2.17
2018-04-25T22:40:03.273Z,2.07
2018-04-25T22:42:31.136Z,2.00
2018-04-25T22:44:59.132Z,2.73
2018-04-25T22:47:26.798Z,2.70
2018-04-25T22:49:54.533Z,2.80
2018-04-25T22:52:22.549Z,2.80
2018-04-25T22:54:50.681Z,2.90
2018-04-25T22:57:19.910Z,2.63
2018-04-25T22:59:47.801Z,3.03
2018-04-25T23:02:15.542Z,2.67
2018-04-25T23:04:43.308Z,2.37
2018-04-25T23:07:11.895Z,2.50
2018-04-25T23:09:39.742Z,2.60
2018-04-25T23:12:07.605Z,3.10
2018-04-25T23:14:35.848Z,2.53
2018-04-25T23:17:03.804Z,2.60
2018-04-25T23:19:31.647Z,2.50
2018-04-25T23:21:59.656Z,2.30
2018-04-25T23:24:27.372Z,2.17
2018-04-25T23:26:55.059Z,2.73
2018-04-25T23:29:24.218Z,2.73
2018-04-25T23:31:51.967Z,2.83
2018-04-25T23:34:19.631Z,2.40
2018-04-25T23:36:47.324Z,2.17
2018-04-25T23:39:15.216Z,2.13
2018-04-25T23:41:43.942Z,2.97
2018-04-25T23:44:11.605Z,2.43
2018-04-25T23:46:39.319Z,2.43
2018-04-25T23:49:07.757Z,2.30
2018-04-25T23:51:36.102Z,2.63
2018-04-25T23:54:03.768Z,2.27
2018-04-25T23:56:31.425Z,3.00
2018-04-25T23:58:59.113Z,2.53
